createdAt,value
2022-11-17T00:01:11.626Z,102726.85
2022-11-17T00:03:26.204Z,102727.71
2022-11-17T00:05:41.232Z,102721.30
2022-11-17T00:07:54.614Z,102717.04
2022-11-17T00:10:08.332Z,102718.11
2022-11-17T00:12:43.889Z,102717.15
2022-11-17T00:14:57.536Z,102710.86
2022-11-17T00:17:13.103Z,102707.47
2022-11-17T00:19:42.999Z,102706.98
2022-11-17T00:21:56.576Z,102708.25
2022-11-17T00:24:10.568Z,102708.23
2022-11-17T00:26:25.545Z,102710.05
2022-11-17T00:28:38.928Z,102707.67
2022-11-17T00:31:09.571Z,102704.59
2022-11-17T00:33:39.610Z,102708.66
2022-11-17T00:35:58.056Z,102708.55
2022-11-17T00:38:20.118Z,102709.94
2022-11-17T00:40:37.187Z,102705.70
2022-11-17T00:42:52.459Z,102701.27
2022-11-17T00:45:09.267Z,102699.14
2022-11-17T00:47:26.845Z,102701.98
2022-11-17T00:49:43.901Z,102695.45
2022-11-17T00:51:58.319Z,102689.35
2022-11-17T00:54:15.777Z,102682.10
2022-11-17T00:56:33.258Z,102681.59
2022-11-17T00:58:46.879Z,102683.14
2022-11-17T01:01:00.270Z,102682.38
2022-11-17T01:03:15.122Z,102678.13
2022-11-17T01:05:33.017Z,102677.52
2022-11-17T01:07:48.269Z,102674.95
2022-11-17T01:10:03.305Z,102674.39
2022-11-17T01:12:16.771Z,102669.18
2022-11-17T01:14:33.570Z,102669.89
2022-11-17T01:16:47.924Z,102664.98
2022-11-17T01:19:02.745Z,102664.63
2022-11-17T01:21:19.859Z,102661.81
2022-11-17T01:23:35.531Z,102659.75
2022-11-17T01:25:52.570Z,102657.39
2022-11-17T01:28:06.445Z,102658.02
2022-11-17T01:30:23.516Z,102659.84
2022-11-17T01:32:36.779Z,102658.63
2022-11-17T01:34:55.176Z,102665.23
2022-11-17T01:37:23.790Z,102660.16
2022-11-17T01:39:37.634Z,102659.50
2022-11-17T01:41:56.121Z,102663.92
2022-11-17T01:44:52.754Z,102665.67
2022-11-17T01:47:10.015Z,102667.60
2022-11-17T01:49:31.929Z,102669.80
2022-11-17T01:51:48.682Z,102674.08
2022-11-17T01:54:04.653Z,102673.94
2022-11-17T01:56:24.503Z,102673.50
2022-11-17T01:58:41.376Z,102676.21
2022-11-17T02:00:56.088Z,102677.83
2022-11-17T02:03:10.221Z,102680.67
2022-11-17T02:05:38.806Z,102679.59
2022-11-17T02:07:57.923Z,102680.75
2022-11-17T02:10:13.244Z,102677.34
2022-11-17T02:12:29.338Z,102669.83
2022-11-17T02:14:44.815Z,102662.77
2022-11-17T02:17:10.077Z,102659.02
2022-11-17T02:19:29.625Z,102655.69
2022-11-17T02:22:29.405Z,102657.34
2022-11-17T02:25:22.982Z,102659.43
2022-11-17T02:28:00.498Z,102654.58
2022-11-17T02:30:17.508Z,102650.86
2022-11-17T02:32:40.021Z,102644.58
2022-11-17T02:34:58.681Z,102646.78
2022-11-17T02:37:22.415Z,102651.97
2022-11-17T02:39:41.962Z,102656.39
2022-11-17T02:41:59.719Z,102661.16
2022-11-17T02:44:19.750Z,102663.34
2022-11-17T02:46:37.834Z,102665.80
2022-11-17T02:48:55.594Z,102664.20
2022-11-17T02:51:10.616Z,102661.88
2022-11-17T02:53:26.517Z,102660.39
2022-11-17T02:55:41.124Z,102659.77
2022-11-17T02:57:54.288Z,102655.08
2022-11-17T03:00:10.371Z,102657.13
2022-11-17T03:02:54.002Z,102654.40
2022-11-17T03:05:19.270Z,102656.09
2022-11-17T03:07:59.156Z,102651.95
2022-11-17T03:10:18.881Z,102649.40
2022-11-17T03:12:45.414Z,102644.39
2022-11-17T03:15:07.858Z,102642.14
2022-11-17T03:17:25.492Z,102638.98
2022-11-17T03:19:45.003Z,102636.70
2022-11-17T03:22:07.916Z,102631.98
2022-11-17T03:24:24.605Z,102625.86
2022-11-17T03:26:43.675Z,102619.92
2022-11-17T03:29:18.551Z,102611.18
2022-11-17T03:31:33.483Z,102604.55
2022-11-17T03:33:49.302Z,102603.34
2022-11-17T03:36:07.236Z,102604.38
2022-11-17T03:38:26.655Z,102603.09
2022-11-17T03:40:42.899Z,102598.13
2022-11-17T03:43:00.897Z,102594.73
2022-11-17T03:45:20.136Z,102591.88
2022-11-17T03:47:36.403Z,102587.98
2022-11-17T03:49:55.210Z,102587.46
2022-11-17T03:52:08.930Z,102586.64
2022-11-17T03:54:22.286Z,102586.39
2022-11-17T03:56:44.677Z,102590.98
2022-11-17T03:59:03.743Z,102593.42
2022-11-17T04:01:17.939Z,102599.38
2022-11-17T04:03:36.257Z,102601.26
2022-11-17T04:05:50.116Z,102608.88
2022-11-17T04:08:03.564Z,102610.20
2022-11-17T04:10:20.125Z,102608.14
2022-11-17T04:12:50.570Z,102605.95
2022-11-17T04:15:20.631Z,102607.63
2022-11-17T04:17:34.205Z,102606.56
2022-11-17T04:19:47.537Z,102608.60
2022-11-17T04:22:00.910Z,102612.38
2022-11-17T04:24:15.100Z,102611.75
2022-11-17T04:26:45.217Z,102609.39
2022-11-17T04:28:59.124Z,102610.15
2022-11-17T04:31:15.050Z,102616.21
2022-11-17T04:33:28.280Z,102618.21
2022-11-17T04:35:41.907Z,102613.38
2022-11-17T04:37:55.125Z,102614.30
2022-11-17T04:40:08.848Z,102618.96
2022-11-17T04:42:22.144Z,102617.10
2022-11-17T04:44:36.024Z,102621.58
2022-11-17T04:46:49.658Z,102616.73
2022-11-17T04:49:03.075Z,102613.63
2022-11-17T04:51:17.042Z,102615.48
2022-11-17T04:53:30.671Z,102615.04
2022-11-17T04:55:43.967Z,102610.85
2022-11-17T04:57:57.174Z,102610.72
2022-11-17T05:00:11.911Z,102609.89
2022-11-17T05:02:25.325Z,102606.23
2022-11-17T05:04:55.080Z,102606.08
2022-11-17T05:07:08.749Z,102605.41
2022-11-17T05:09:22.816Z,102607.05
2022-11-17T05:11:52.771Z,102607.44
2022-11-17T05:14:06.836Z,102609.71
2022-11-17T05:16:36.937Z,102611.64
2022-11-17T05:18:50.693Z,102614.80
2022-11-17T05:21:07.897Z,102616.74
2022-11-17T05:23:38.055Z,102612.73
2022-11-17T05:25:51.387Z,102612.77
2022-11-17T05:28:05.118Z,102611.40
2022-11-17T05:30:20.261Z,102612.36
2022-11-17T05:32:33.472Z,102614.23
2022-11-17T05:34:46.882Z,102611.34
2022-11-17T05:37:00.129Z,102609.52
2022-11-17T05:39:15.299Z,102614.17
2022-11-17T05:41:30.092Z,102614.63
2022-11-17T05:43:43.487Z,102614.86
2022-11-17T05:45:56.740Z,102615.77
2022-11-17T05:48:10.639Z,102611.38
2022-11-17T05:50:24.060Z,102608.95
2022-11-17T05:52:37.296Z,102602.30
2022-11-17T05:54:50.508Z,102590.67
2022-11-17T05:57:07.256Z,102589.07
2022-11-17T05:59:28.379Z,102588.15
2022-11-17T06:01:44.558Z,102592.50
2022-11-17T06:04:01.434Z,102592.77
2022-11-17T06:06:15.037Z,102594.46
2022-11-17T06:08:30.299Z,102589.66
2022-11-17T06:10:43.550Z,102586.50
2022-11-17T06:12:56.808Z,102581.39
2022-11-17T06:15:10.865Z,102579.65
2022-11-17T06:17:28.844Z,102575.67
2022-11-17T06:19:47.779Z,102575.02
2022-11-17T06:22:12.279Z,102574.70
2022-11-17T06:24:27.071Z,102575.11
2022-11-17T06:26:41.073Z,102571.58
2022-11-17T06:28:55.582Z,102567.54
2022-11-17T06:31:09.581Z,102573.30
2022-11-17T06:33:23.984Z,102572.56
2022-11-17T06:35:37.650Z,102573.95
2022-11-17T06:37:50.833Z,102570.95
2022-11-17T06:40:04.340Z,102572.00
2022-11-17T06:42:17.615Z,102567.61
2022-11-17T06:44:30.843Z,102569.38
2022-11-17T06:46:48.793Z,102571.34
2022-11-17T06:49:02.814Z,102572.40
2022-11-17T06:51:16.115Z,102571.50
2022-11-17T06:53:29.927Z,102573.23
2022-11-17T06:55:43.461Z,102577.10
2022-11-17T06:58:01.718Z,102575.88
2022-11-17T07:00:17.816Z,102574.65
2022-11-17T07:02:31.289Z,102573.64
2022-11-17T07:04:44.831Z,102577.04
2022-11-17T07:06:58.312Z,102574.09
2022-11-17T07:09:12.005Z,102576.44
2022-11-17T07:11:25.797Z,102579.64
2022-11-17T07:13:40.085Z,102580.75
2022-11-17T07:15:53.569Z,102578.20
2022-11-17T07:18:07.146Z,102581.77
2022-11-17T07:20:21.674Z,102585.36
2022-11-17T07:22:37.782Z,102585.06
2022-11-17T07:24:51.208Z,102582.80
2022-11-17T07:27:06.074Z,102580.02
2022-11-17T07:29:19.460Z,102583.21
2022-11-17T07:31:32.939Z,102580.96
2022-11-17T07:33:46.675Z,102580.98
2022-11-17T07:36:00.270Z,102574.85
2022-11-17T07:38:13.617Z,102573.80
2022-11-17T07:40:26.952Z,102569.04
2022-11-17T07:42:40.345Z,102568.85
2022-11-17T07:44:53.645Z,102567.80
2022-11-17T07:47:07.044Z,102571.50
2022-11-17T07:49:20.475Z,102572.23
2022-11-17T07:51:33.786Z,102571.56
2022-11-17T07:53:47.059Z,102574.22
2022-11-17T07:56:00.385Z,102568.66
2022-11-17T07:58:13.707Z,102568.70
2022-11-17T08:00:27.625Z,102567.73
2022-11-17T08:02:41.128Z,102568.49
2022-11-17T08:04:54.515Z,102568.55
2022-11-17T08:07:07.849Z,102570.17
2022-11-17T08:09:22.355Z,102573.34
2022-11-17T08:11:35.745Z,102573.33
2022-11-17T08:13:49.202Z,102572.45
2022-11-17T08:16:04.363Z,102574.02
2022-11-17T08:18:18.017Z,102572.27
2022-11-17T08:20:32.320Z,102579.48
2022-11-17T08:22:45.750Z,102580.54
2022-11-17T08:24:59.288Z,102579.87
2022-11-17T08:27:13.549Z,102575.33
2022-11-17T08:29:26.982Z,102573.09
2022-11-17T08:31:42.473Z,102570.52
2022-11-17T08:33:55.982Z,102564.96
2022-11-17T08:36:11.073Z,102564.83
2022-11-17T08:38:26.134Z,102563.98
2022-11-17T08:40:39.820Z,102563.33
2022-11-17T08:43:00.945Z,102559.85
2022-11-17T08:45:16.110Z,102552.33
2022-11-17T08:47:29.580Z,102546.91
2022-11-17T08:49:43.551Z,102545.01
2022-11-17T08:51:56.836Z,102543.44
2022-11-17T08:54:10.436Z,102545.21
2022-11-17T08:56:24.820Z,102546.09
2022-11-17T08:58:41.215Z,102546.64
2022-11-17T09:00:54.583Z,102546.67
2022-11-17T09:03:11.490Z,102547.20
2022-11-17T09:05:26.284Z,102548.44
2022-11-17T09:07:41.155Z,102545.14
2022-11-17T09:09:54.498Z,102539.55
2022-11-17T09:12:07.861Z,102538.16
2022-11-17T09:14:24.060Z,102529.06
2022-11-17T09:16:38.070Z,102521.19
2022-11-17T09:18:51.459Z,102520.12
2022-11-17T09:21:08.175Z,102519.09
2022-11-17T09:23:21.500Z,102517.98
2022-11-17T09:25:35.474Z,102517.59
2022-11-17T09:27:49.107Z,102514.05
2022-11-17T09:30:02.643Z,102510.54
2022-11-17T09:32:17.915Z,102508.96
2022-11-17T09:34:31.339Z,102506.17
2022-11-17T09:36:45.313Z,102506.00
2022-11-17T09:38:58.811Z,102507.77
2022-11-17T09:41:27.691Z,102503.34
2022-11-17T09:43:43.545Z,102508.02
2022-11-17T09:46:03.082Z,102509.17
2022-11-17T09:48:40.152Z,102510.95
2022-11-17T09:50:54.079Z,102512.00
2022-11-17T09:53:16.222Z,102516.17
2022-11-17T09:55:34.564Z,102510.33
2022-11-17T09:57:51.951Z,102511.73
2022-11-17T10:00:17.939Z,102510.76
2022-11-17T10:02:31.300Z,102512.28
2022-11-17T10:04:44.649Z,102510.50
2022-11-17T10:06:58.255Z,102507.89
2022-11-17T10:09:25.449Z,102510.92
2022-11-17T10:11:41.763Z,102510.48
2022-11-17T10:13:55.726Z,102515.66
2022-11-17T10:16:15.956Z,102514.84
2022-11-17T10:18:31.483Z,102511.92
2022-11-17T10:20:49.413Z,102510.41
2022-11-17T10:23:05.624Z,102514.70
2022-11-17T10:25:39.939Z,102515.65
2022-11-17T10:27:57.754Z,102512.23
2022-11-17T10:30:24.301Z,102511.96
2022-11-17T10:32:39.945Z,102505.84
2022-11-17T10:34:56.242Z,102497.96
2022-11-17T10:37:29.467Z,102495.00
2022-11-17T10:39:46.964Z,102492.39
2022-11-17T10:42:00.579Z,102490.66
2022-11-17T10:44:31.611Z,102491.77
2022-11-17T10:47:02.778Z,102493.78
2022-11-17T10:49:31.316Z,102493.33
2022-11-17T10:51:44.641Z,102493.36
2022-11-17T10:54:10.828Z,102497.58
2022-11-17T10:56:26.170Z,102498.63
2022-11-17T10:58:52.527Z,102501.06
2022-11-17T11:01:08.128Z,102506.33
2022-11-17T11:03:26.595Z,102505.98
2022-11-17T11:06:04.905Z,102504.98
2022-11-17T11:08:54.932Z,102500.67
2022-11-17T11:11:11.985Z,102504.77
2022-11-17T11:13:52.062Z,102506.07
2022-11-17T11:16:05.579Z,102501.90
2022-11-17T11:18:21.363Z,102498.61
2022-11-17T11:20:49.473Z,102495.50
2022-11-17T11:23:11.642Z,102492.36
2022-11-17T11:25:38.318Z,102497.84
2022-11-17T11:28:20.802Z,102494.16
2022-11-17T11:30:35.595Z,102488.39
2022-11-17T11:33:04.643Z,102482.62
2022-11-17T11:35:44.432Z,102474.55
2022-11-17T11:38:02.547Z,102464.73
2022-11-17T11:40:23.575Z,102460.71
2022-11-17T11:42:49.616Z,102458.25
2022-11-17T11:45:25.937Z,102462.22
2022-11-17T11:47:53.170Z,102459.71
2022-11-17T11:50:14.965Z,102454.44
2022-11-17T11:52:32.358Z,102450.76
2022-11-17T11:54:51.089Z,102451.65
2022-11-17T11:57:05.424Z,102448.34
2022-11-17T11:59:23.337Z,102450.65
2022-11-17T12:01:41.848Z,102448.03
2022-11-17T12:04:10.012Z,102444.19
2022-11-17T12:06:44.855Z,102439.13
2022-11-17T12:09:07.236Z,102443.52
2022-11-17T12:11:41.418Z,102440.59
2022-11-17T12:13:55.696Z,102434.30
2022-11-17T12:16:31.239Z,102439.42
2022-11-17T12:18:44.504Z,102441.88
2022-11-17T12:21:04.343Z,102449.42
2022-11-17T12:23:30.464Z,102449.77
2022-11-17T12:25:54.129Z,102450.66
2022-11-17T12:28:33.305Z,102454.34
2022-11-17T12:31:06.645Z,102456.80
2022-11-17T12:33:23.467Z,102459.98
2022-11-17T12:35:38.369Z,102464.39
2022-11-17T12:37:51.667Z,102461.97
2022-11-17T12:40:33.161Z,102464.09
2022-11-17T12:43:25.284Z,102467.48
2022-11-17T12:46:05.911Z,102480.31
2022-11-17T12:48:33.615Z,102483.34
2022-11-17T12:51:04.857Z,102485.11
2022-11-17T12:53:32.738Z,102481.45
2022-11-17T12:56:01.024Z,102481.98
2022-11-17T12:58:23.908Z,102476.92
2022-11-17T13:00:44.942Z,102478.50
2022-11-17T13:03:11.720Z,102479.73
2022-11-17T13:05:27.155Z,102480.95
2022-11-17T13:07:41.019Z,102487.08
2022-11-17T13:09:58.080Z,102491.64
2022-11-17T13:12:14.093Z,102492.00
2022-11-17T13:14:27.402Z,102493.20
2022-11-17T13:16:41.809Z,102490.18
2022-11-17T13:18:55.740Z,102485.23
2022-11-17T13:21:19.469Z,102485.89
2022-11-17T13:23:34.477Z,102480.77
2022-11-17T13:25:47.885Z,102477.59
2022-11-17T13:28:04.842Z,102476.19
2022-11-17T13:30:28.583Z,102472.52
2022-11-17T13:32:45.169Z,102471.32
2022-11-17T13:35:02.930Z,102477.63
2022-11-17T13:37:23.888Z,102486.58
2022-11-17T13:39:37.327Z,102487.29
2022-11-17T13:41:51.243Z,102486.77
2022-11-17T13:44:04.662Z,102485.69
2022-11-17T13:46:18.230Z,102485.45
2022-11-17T13:48:42.500Z,102486.63
2022-11-17T13:50:55.981Z,102492.59
2022-11-17T13:53:23.085Z,102494.50
2022-11-17T13:55:37.326Z,102496.98
2022-11-17T13:58:00.950Z,102501.75
2022-11-17T14:00:25.180Z,102504.73
2022-11-17T14:02:38.962Z,102504.95
2022-11-17T14:05:24.076Z,102501.44
2022-11-17T14:07:40.686Z,102497.25
2022-11-17T14:10:14.239Z,102492.55
2022-11-17T14:12:27.459Z,102492.95
2022-11-17T14:14:44.310Z,102496.14
2022-11-17T14:16:58.854Z,102499.33
2022-11-17T14:19:32.664Z,102499.85
2022-11-17T14:22:04.581Z,102496.70
2022-11-17T14:24:20.720Z,102496.20
2022-11-17T14:26:34.297Z,102496.21
2022-11-17T14:28:47.917Z,102504.83
2022-11-17T14:31:02.158Z,102514.82
2022-11-17T14:33:15.667Z,102507.64
2022-11-17T14:35:29.398Z,102507.83
2022-11-17T14:37:42.819Z,102508.52
2022-11-17T14:39:56.255Z,102510.43
2022-11-17T14:42:09.805Z,102513.93
2022-11-17T14:44:24.444Z,102514.98
2022-11-17T14:46:38.699Z,102515.66
2022-11-17T14:48:52.017Z,102518.63
2022-11-17T14:51:06.179Z,102520.86
2022-11-17T14:53:22.426Z,102526.95
2022-11-17T14:55:35.815Z,102530.21
2022-11-17T14:57:50.811Z,102537.70
2022-11-17T15:00:04.135Z,102540.10
2022-11-17T15:02:18.900Z,102542.13
2022-11-17T15:07:05.568Z,102552.67
2022-11-17T15:09:21.673Z,102557.34
2022-11-17T15:11:39.436Z,102561.67
2022-11-17T15:13:53.038Z,102564.44
2022-11-17T15:16:10.897Z,102569.52
2022-11-17T15:18:24.090Z,102562.80
2022-11-17T15:20:37.414Z,102562.95
2022-11-17T15:22:50.683Z,102564.66
2022-11-17T15:25:04.125Z,102564.11
2022-11-17T15:27:17.837Z,102568.79
2022-11-17T15:29:31.321Z,102570.64
2022-11-17T15:31:44.813Z,102572.81
2022-11-17T15:33:58.638Z,102575.84
2022-11-17T15:36:13.782Z,102571.37
2022-11-17T15:38:27.040Z,102573.77
2022-11-17T15:40:40.424Z,102574.58
2022-11-17T15:42:55.976Z,102576.63
2022-11-17T15:45:10.898Z,102581.69
2022-11-17T15:47:24.282Z,102582.70
2022-11-17T15:49:37.512Z,102588.99
2022-11-17T15:51:50.731Z,102590.36
2022-11-17T15:54:05.104Z,102590.66
2022-11-17T15:56:20.675Z,102594.67
2022-11-17T15:58:33.945Z,102599.02
2022-11-17T16:00:47.147Z,102599.19
2022-11-17T16:03:00.537Z,102601.27
2022-11-17T16:05:15.553Z,102609.20
2022-11-17T16:07:29.034Z,102607.44
2022-11-17T16:09:44.952Z,102605.33
2022-11-17T16:12:00.797Z,102598.83
2022-11-17T16:14:16.074Z,102601.27
2022-11-17T16:16:30.720Z,102601.19
2022-11-17T16:18:44.362Z,102606.58
2022-11-17T16:21:02.985Z,102603.37
2022-11-17T16:23:18.541Z,102600.48
2022-11-17T16:25:31.979Z,102602.20
2022-11-17T16:27:45.597Z,102600.20
2022-11-17T16:29:59.065Z,102602.42
2022-11-17T16:32:12.680Z,102605.89
2022-11-17T16:34:27.393Z,102605.98
2022-11-17T16:36:42.384Z,102612.27
2022-11-17T16:39:01.784Z,102608.68
2022-11-17T16:41:15.949Z,102605.10
2022-11-17T16:43:29.724Z,102605.58
2022-11-17T16:45:48.319Z,102596.20
2022-11-17T16:48:01.943Z,102589.09
2022-11-17T16:50:16.061Z,102592.35
2022-11-17T16:52:29.447Z,102585.73
2022-11-17T16:54:43.247Z,102586.70
2022-11-17T16:56:56.591Z,102581.86
2022-11-17T16:59:10.155Z,102578.61
2022-11-17T17:01:25.173Z,102574.92
2022-11-17T17:03:39.269Z,102569.73
2022-11-17T17:05:52.897Z,102565.05
2022-11-17T17:08:06.325Z,102559.11
2022-11-17T17:10:19.879Z,102561.95
2022-11-17T17:12:33.743Z,102557.71
2022-11-17T17:14:47.176Z,102554.58
2022-11-17T17:17:00.722Z,102555.60
2022-11-17T17:19:15.743Z,102558.72
2022-11-17T17:21:29.706Z,102548.48
2022-11-17T17:23:43.443Z,102541.10
2022-11-17T17:26:06.259Z,102541.64
2022-11-17T17:28:19.889Z,102544.62
2022-11-17T17:30:33.366Z,102544.05
2022-11-17T17:32:46.838Z,102544.05
2022-11-17T17:35:00.138Z,102548.33
2022-11-17T17:37:13.484Z,102552.42
2022-11-17T17:39:26.913Z,102557.44
2022-11-17T17:41:42.147Z,102553.45
2022-11-17T17:44:01.143Z,102558.66
2022-11-17T17:46:17.124Z,102554.33
2022-11-17T17:48:30.731Z,102557.78
2022-11-17T17:50:44.426Z,102566.16
2022-11-17T17:52:59.724Z,102576.10
2022-11-17T17:55:14.866Z,102583.05
2022-11-17T17:57:33.738Z,102587.86
2022-11-17T17:59:49.555Z,102591.97
2022-11-17T18:02:03.138Z,102592.41
2022-11-17T18:04:17.101Z,102597.95
2022-11-17T18:06:31.109Z,102596.80
2022-11-17T18:08:45.060Z,102602.34
2022-11-17T18:11:02.666Z,102605.10
2022-11-17T18:13:16.056Z,102608.04
2022-11-17T18:15:29.644Z,102612.23
2022-11-17T18:17:43.010Z,102608.51
2022-11-17T18:19:56.281Z,102607.09
2022-11-17T18:22:09.511Z,102608.84
2022-11-17T18:24:23.366Z,102605.83
2022-11-17T18:26:38.407Z,102605.63
2022-11-17T18:28:56.913Z,102598.02
2022-11-17T18:31:11.121Z,102601.18
2022-11-17T18:33:24.685Z,102596.72
2022-11-17T18:35:38.416Z,102594.89
2022-11-17T18:37:51.740Z,102594.34
2022-11-17T18:40:05.589Z,102598.55
2022-11-17T18:42:18.974Z,102611.20
2022-11-17T18:44:32.687Z,102613.23
2022-11-17T18:46:46.430Z,102607.85
2022-11-17T18:48:59.806Z,102606.20
2022-11-17T18:51:19.469Z,102605.29
2022-11-17T18:53:35.683Z,102601.21
2022-11-17T18:55:49.000Z,102606.16
2022-11-17T18:58:02.373Z,102608.98
2022-11-17T19:00:17.492Z,102610.14
2022-11-17T19:02:31.185Z,102605.62
2022-11-17T19:04:44.555Z,102602.90
2022-11-17T19:06:57.829Z,102610.39
2022-11-17T19:09:12.001Z,102616.33
2022-11-17T19:11:26.391Z,102611.63
2022-11-17T19:13:41.255Z,102608.88
2022-11-17T19:15:55.180Z,102611.61
2022-11-17T19:18:08.533Z,102613.09
2022-11-17T19:20:22.242Z,102613.38
2022-11-17T19:22:36.500Z,102621.39
2022-11-17T19:24:50.306Z,102613.35
2022-11-17T19:27:03.524Z,102610.98
2022-11-17T19:29:18.113Z,102605.25
2022-11-17T19:31:32.116Z,102602.84
2022-11-17T19:33:46.351Z,102601.12
2022-11-17T19:35:59.797Z,102601.48
2022-11-17T19:38:13.214Z,102602.17
2022-11-17T19:40:26.559Z,102602.88
2022-11-17T19:42:39.779Z,102597.91
2022-11-17T19:44:53.151Z,102590.29
2022-11-17T19:47:06.477Z,102598.60
2022-11-17T19:49:19.886Z,102590.83
2022-11-17T19:51:34.909Z,102591.00
2022-11-17T19:53:48.598Z,102581.43
2022-11-17T19:56:03.891Z,102584.24
2022-11-17T19:58:18.015Z,102584.76
2022-11-17T20:00:31.434Z,102579.27
2022-11-17T20:02:44.836Z,102575.62
2022-11-17T20:04:58.021Z,102572.64
2022-11-17T20:07:15.323Z,102567.90
2022-11-17T20:09:28.837Z,102566.67
2022-11-17T20:11:42.864Z,102564.80
2022-11-17T20:13:56.514Z,102569.77
2022-11-17T20:16:12.426Z,102572.84
2022-11-17T20:18:26.294Z,102572.54
2022-11-17T20:20:39.984Z,102573.26
2022-11-17T20:22:53.271Z,102576.11
2022-11-17T20:25:06.954Z,102571.11
2022-11-17T20:27:20.495Z,102576.98
2022-11-17T20:29:33.723Z,102573.77
2022-11-17T20:31:47.629Z,102576.92
2022-11-17T20:34:02.518Z,102573.52
2022-11-17T20:36:18.868Z,102576.92
2022-11-17T20:38:33.527Z,102576.05
2022-11-17T20:40:46.960Z,102571.61
2022-11-17T20:43:01.654Z,102569.73
2022-11-17T20:45:15.948Z,102572.23
2022-11-17T20:47:29.845Z,102574.33
2022-11-17T20:49:43.357Z,102569.13
2022-11-17T20:51:56.867Z,102573.03
2022-11-17T20:54:11.714Z,102569.14
2022-11-17T20:56:25.247Z,102568.11
2022-11-17T20:58:38.902Z,102568.45
2022-11-17T21:00:52.596Z,102574.17
2022-11-17T21:03:06.197Z,102570.64
2022-11-17T21:05:19.699Z,102569.27
2022-11-17T21:07:33.244Z,102571.91
2022-11-17T21:09:46.694Z,102566.63
2022-11-17T21:12:00.170Z,102568.20
2022-11-17T21:14:15.342Z,102562.36
2022-11-17T21:16:28.956Z,102566.78
2022-11-17T21:18:43.413Z,102569.38
2022-11-17T21:20:59.119Z,102566.20
2022-11-17T21:23:12.484Z,102570.50
2022-11-17T21:25:25.795Z,102567.48
2022-11-17T21:27:39.181Z,102565.04
2022-11-17T21:29:53.330Z,102568.30
2022-11-17T21:32:06.560Z,102567.42
2022-11-17T21:34:21.998Z,102566.35
2022-11-17T21:36:36.554Z,102561.60
2022-11-17T21:38:50.358Z,102565.81
2022-11-17T21:41:07.691Z,102565.88
2022-11-17T21:43:21.030Z,102562.39
2022-11-17T21:45:35.974Z,102559.54
2022-11-17T21:47:49.463Z,102558.70
2022-11-17T21:50:02.795Z,102557.41
2022-11-17T21:52:16.065Z,102558.05
2022-11-17T21:54:29.394Z,102559.07
2022-11-17T21:56:42.688Z,102562.02
2022-11-17T21:58:59.852Z,102567.39
2022-11-17T22:01:18.268Z,102565.64
2022-11-17T22:03:31.847Z,102568.86
2022-11-17T22:05:45.225Z,102569.26
2022-11-17T22:07:58.744Z,102572.14
2022-11-17T22:10:13.419Z,102573.58
2022-11-17T22:12:27.726Z,102572.98
2022-11-17T22:14:41.132Z,102563.73
2022-11-17T22:16:56.242Z,102568.15
2022-11-17T22:19:15.811Z,102565.11
2022-11-17T22:21:29.573Z,102568.33
2022-11-17T22:23:42.845Z,102565.25
2022-11-17T22:26:01.815Z,102568.92
2022-11-17T22:28:15.919Z,102564.13
2022-11-17T22:30:29.198Z,102567.65
2022-11-17T22:32:45.177Z,102565.27
2022-11-17T22:35:02.556Z,102569.91
2022-11-17T22:37:15.884Z,102572.76
2022-11-17T22:39:29.191Z,102575.90
2022-11-17T22:41:42.284Z,102575.77
2022-11-17T22:43:59.530Z,102578.04
2022-11-17T22:46:14.891Z,102580.02
2022-11-17T22:48:28.302Z,102585.05
2022-11-17T22:50:41.862Z,102586.92
2022-11-17T22:52:55.200Z,102587.37
2022-11-17T22:55:08.819Z,102589.41
2022-11-17T22:57:22.104Z,102592.46
2022-11-17T22:59:36.837Z,102589.48
2022-11-17T23:01:50.113Z,102595.88
2022-11-17T23:04:03.606Z,102597.21
2022-11-17T23:06:17.088Z,102605.43
2022-11-17T23:08:30.366Z,102609.84
2022-11-17T23:10:43.741Z,102613.67
2022-11-17T23:12:57.097Z,102612.79
2022-11-17T23:15:11.624Z,102615.64
2022-11-17T23:17:24.944Z,102622.68
2022-11-17T23:19:38.562Z,102623.73
2022-11-17T23:21:51.827Z,102630.45
2022-11-17T23:24:05.082Z,102628.08
2022-11-17T23:26:18.631Z,102636.56
2022-11-17T23:28:31.835Z,102642.13
2022-11-17T23:30:45.120Z,102641.33
2022-11-17T23:32:58.909Z,102639.90
2022-11-17T23:35:14.140Z,102646.07
2022-11-17T23:37:27.508Z,102638.95
2022-11-17T23:39:40.772Z,102644.98
2022-11-17T23:41:54.008Z,102641.67
2022-11-17T23:44:07.790Z,102644.94
2022-11-17T23:46:22.084Z,102643.54
2022-11-17T23:48:35.281Z,102649.36
2022-11-17T23:50:48.494Z,102644.93
2022-11-17T23:53:01.861Z,102646.78
2022-11-17T23:55:15.700Z,102642.73
2022-11-17T23:57:29.067Z,102643.63
2022-11-17T23:59:42.701Z,102646.13
